Time;durP1;ratioP1;P1;durP2;ratioP2;P2;SDS_P1;SDS_P2;PMS_P1;PMS_P2;Temp;Humidity;BMP_temperature;BMP_pressure;BME280_temperature;BME280_humidity;BME280_pressure;Samples;Min_cycle;Max_cycle;Signal;HPM_P1;HPM_P2
2023/08/29 00:00:20;;;;;;;2.83;1.85;;;14.10;99.90;;;;;;5112919;27;20091;-81
2023/08/29 00:02:46;;;;;;;3.05;1.90;;;14.00;99.90;;;;;;5119246;27;20039;-63
2023/08/29 00:05:12;;;;;;;9.43;2.40;;;13.90;99.90;;;;;;5151615;27;20500;-61
2023/08/29 00:07:38;;;;;;;5.72;2.40;;;14.00;99.90;;;;;;5152165;27;20876;-61
2023/08/29 00:10:04;;;;;;;3.78;2.00;;;13.90;99.90;;;;;;5151901;27;20125;-61
2023/08/29 00:12:32;;;;;;;6.88;2.33;;;13.80;99.90;;;;;;5117659;27;20067;-61
2023/08/29 00:14:58;;;;;;;4.95;1.95;;;13.80;99.90;;;;;;5131849;27;20047;-61
2023/08/29 00:17:26;;;;;;;2.17;1.83;;;13.80;99.90;;;;;;5130007;27;20096;-61
2023/08/29 00:19:52;;;;;;;2.25;1.83;;;13.70;99.90;;;;;;5135794;27;20042;-61
2023/08/29 00:22:17;;;;;;;2.60;1.80;;;13.70;99.90;;;;;;5131488;27;20043;-61
2023/08/29 00:24:44;;;;;;;5.85;2.13;;;13.60;99.90;;;;;;5138774;27;20049;-61
2023/08/29 00:27:12;;;;;;;2.95;1.75;;;13.60;99.90;;;;;;5142874;27;20043;-61
2023/08/29 00:29:38;;;;;;;6.68;2.03;;;13.60;99.90;;;;;;5130526;27;20102;-61
2023/08/29 00:32:04;;;;;;;2.55;2.00;;;13.60;99.90;;;;;;5141745;27;20118;-61
2023/08/29 00:34:30;;;;;;;3.00;1.90;;;13.50;99.90;;;;;;5137174;27;20400;-61
2023/08/29 00:36:56;;;;;;;3.75;3.45;;;13.50;99.90;;;;;;5135561;27;20034;-61
2023/08/29 00:39:22;;;;;;;4.93;2.00;;;13.40;99.90;;;;;;5150715;27;20049;-61
2023/08/29 00:41:49;;;;;;;3.90;2.17;;;13.50;99.90;;;;;;5115298;27;20129;-61
2023/08/29 00:44:16;;;;;;;2.45;2.13;;;13.40;99.90;;;;;;5129810;27;20081;-61
2023/08/29 00:46:44;;;;;;;2.67;2.42;;;13.40;99.90;;;;;;5130592;27;20126;-66
2023/08/29 00:49:11;;;;;;;2.78;2.10;;;13.40;99.90;;;;;;5130842;27;20043;-61
2023/08/29 00:51:38;;;;;;;2.70;1.92;;;13.30;99.90;;;;;;5129681;27;20055;-61
2023/08/29 00:54:04;;;;;;;2.30;1.67;;;13.40;99.90;;;;;;5147173;27;20047;-63
2023/08/29 00:56:30;;;;;;;2.28;2.15;;;13.30;99.90;;;;;;5137763;27;20083;-62
2023/08/29 00:58:56;;;;;;;2.42;1.98;;;13.30;99.90;;;;;;5130644;27;20078;-61
2023/08/29 01:01:22;;;;;;;3.85;1.90;;;13.30;99.90;;;;;;5115671;27;20485;-61
2023/08/29 01:03:48;;;;;;;4.93;2.10;;;13.30;99.90;;;;;;5130690;27;20043;-61
2023/08/29 01:06:14;;;;;;;3.38;1.67;;;13.30;99.90;;;;;;5132055;27;20074;-65
2023/08/29 01:08:43;;;;;;;4.82;1.80;;;13.30;99.90;;;;;;5129898;27;20069;-61
2023/08/29 01:11:45;;;;;;;4.60;1.80;;;13.30;99.90;;;;;;5145124;27;20420;-61
2023/08/29 01:14:36;;;;;;;2.63;2.15;;;13.30;99.90;;;;;;5129577;27;20095;-61
2023/08/29 01:17:06;;;;;;;4.05;1.98;;;13.30;99.90;;;;;;5117665;27;20058;-61
2023/08/29 01:19:34;;;;;;;5.20;2.00;;;13.30;99.90;;;;;;5130074;27;20047;-61
2023/08/29 01:22:18;;;;;;;2.80;1.95;;;13.30;99.90;;;;;;5121561;27;20497;-61
2023/08/29 01:25:09;;;;;;;2.25;1.92;;;13.30;99.90;;;;;;5145946;27;20090;-62
2023/08/29 01:27:37;;;;;;;2.65;1.80;;;13.30;99.90;;;;;;5129853;27;20065;-61
2023/08/29 01:30:06;;;;;;;6.07;1.80;;;13.20;99.90;;;;;;5128690;27;20081;-61
2023/08/29 01:32:32;;;;;;;3.05;2.05;;;13.20;99.90;;;;;;5145180;27;20129;-61
2023/08/29 01:34:58;;;;;;;2.15;2.03;;;13.20;99.90;;;;;;5128972;27;20504;-61
2023/08/29 01:37:24;;;;;;;2.13;1.90;;;13.20;99.90;;;;;;5130413;27;20031;-61
2023/08/29 01:39:50;;;;;;;1.75;1.60;;;13.20;99.90;;;;;;5129033;27;20535;-61
2023/08/29 01:42:15;;;;;;;3.50;2.08;;;13.20;99.90;;;;;;5150093;27;20138;-61
2023/08/29 01:44:41;;;;;;;4.65;1.70;;;13.10;99.90;;;;;;5133042;27;20047;-61
2023/08/29 01:47:07;;;;;;;3.75;1.80;;;13.00;99.90;;;;;;5129415;27;20058;-61
2023/08/29 01:49:35;;;;;;;2.25;1.70;;;13.10;99.90;;;;;;5147900;27;20039;-61
2023/08/29 01:52:01;;;;;;;1.83;1.50;;;13.00;99.90;;;;;;5109959;27;20043;-61
2023/08/29 01:54:27;;;;;;;2.88;1.70;;;13.00;99.90;;;;;;5129590;27;20082;-61
2023/08/29 01:56:56;;;;;;;5.55;1.67;;;13.00;99.90;;;;;;5127105;27;20074;-61
2023/08/29 01:59:22;;;;;;;3.05;1.58;;;13.00;99.90;;;;;;5141483;27;20397;-61
2023/08/29 02:01:48;;;;;;;1.75;1.67;;;13.00;99.90;;;;;;5140693;27;20054;-61
2023/08/29 02:04:14;;;;;;;3.90;2.00;;;12.90;99.90;;;;;;5122815;27;20043;-61
2023/08/29 02:06:40;;;;;;;4.40;1.70;;;12.90;99.90;;;;;;5129262;27;20517;-61
2023/08/29 02:09:06;;;;;;;2.30;1.80;;;12.90;99.90;;;;;;5131547;27;20039;-61
2023/08/29 02:11:32;;;;;;;2.97;1.50;;;12.80;99.90;;;;;;5138311;27;20046;-61
2023/08/29 02:13:58;;;;;;;3.60;1.90;;;12.80;99.90;;;;;;5133378;27;20551;-61
2023/08/29 02:16:24;;;;;;;1.80;1.42;;;12.80;99.90;;;;;;5094009;27;20129;-61
2023/08/29 02:18:52;;;;;;;7.50;1.92;;;12.70;99.90;;;;;;5128049;27;20392;-61
2023/08/29 02:21:17;;;;;;;5.97;1.50;;;12.70;99.90;;;;;;5147404;27;20115;-61
2023/08/29 02:23:43;;;;;;;2.45;1.50;;;12.60;99.90;;;;;;5137920;27;20131;-61
2023/08/29 02:26:09;;;;;;;2.45;1.48;;;12.60;99.90;;;;;;5128588;27;20155;-61
2023/08/29 02:28:36;;;;;;;4.10;1.90;;;12.60;99.90;;;;;;5128589;27;20130;-61
2023/08/29 02:31:06;;;;;;;2.35;1.60;;;12.50;99.90;;;;;;5127810;27;20058;-61
2023/08/29 02:33:37;;;;;;;2.10;1.70;;;12.50;99.90;;;;;;5129375;27;20043;-61
2023/08/29 02:36:04;;;;;;;2.20;1.70;;;12.50;99.90;;;;;;5127071;27;20170;-61
2023/08/29 02:38:30;;;;;;;2.75;1.88;;;12.40;99.90;;;;;;5110821;27;20042;-61
2023/08/29 02:40:56;;;;;;;1.75;1.65;;;12.50;99.90;;;;;;5134960;27;20030;-61
2023/08/29 02:43:22;;;;;;;5.95;1.70;;;12.40;99.90;;;;;;5143699;27;20039;-61
2023/08/29 02:45:50;;;;;;;3.03;1.52;;;12.40;99.90;;;;;;5128648;27;20047;-61
2023/08/29 02:48:16;;;;;;;1.83;1.65;;;12.40;99.90;;;;;;5127035;27;20051;-61
2023/08/29 02:50:42;;;;;;;7.97;1.83;;;12.50;99.90;;;;;;5129019;27;20039;-61
2023/08/29 02:53:08;;;;;;;6.00;1.63;;;12.40;99.90;;;;;;5145448;27;20038;-61
2023/08/29 02:55:33;;;;;;;1.60;1.50;;;12.40;99.90;;;;;;5129223;27;20108;-62
2023/08/29 02:57:59;;;;;;;2.08;1.20;;;12.40;99.90;;;;;;5127423;27;20068;-61
2023/08/29 03:00:25;;;;;;;3.22;1.75;;;12.30;99.90;;;;;;5109425;27;20153;-61
2023/08/29 03:02:50;;;;;;;5.55;1.63;;;12.30;99.90;;;;;;5113092;27;20035;-61
2023/08/29 03:05:16;;;;;;;1.25;1.25;;;12.30;99.90;;;;;;5111742;27;20091;-61
2023/08/29 03:07:42;;;;;;;3.80;1.65;;;12.20;99.90;;;;;;5148909;27;20039;-64
2023/08/29 03:10:08;;;;;;;2.75;1.52;;;12.20;99.90;;;;;;5104384;27;20434;-63
2023/08/29 03:12:34;;;;;;;3.80;1.60;;;12.20;99.90;;;;;;5125624;27;20049;-61
2023/08/29 03:15:00;;;;;;;2.50;1.48;;;12.10;99.90;;;;;;5138193;27;20091;-61
2023/08/29 03:17:27;;;;;;;1.13;1.13;;;12.10;99.90;;;;;;5127627;27;20055;-61
2023/08/29 03:19:52;;;;;;;5.03;1.95;;;12.20;99.90;;;;;;5127306;27;20084;-61
2023/08/29 03:22:18;;;;;;;1.73;1.25;;;12.10;99.90;;;;;;5128289;27;20455;-61
2023/08/29 03:24:47;;;;;;;1.75;1.50;;;12.20;99.90;;;;;;5127931;27;20031;-61
2023/08/29 03:27:13;;;;;;;2.00;1.90;;;12.10;99.90;;;;;;5126797;27;20514;-64
2023/08/29 03:29:40;;;;;;;1.58;1.48;;;12.10;99.90;;;;;;5092221;28;20039;-61
2023/08/29 03:32:06;;;;;;;1.90;1.50;;;12.10;99.90;;;;;;5137742;27;20492;-61
2023/08/29 03:34:32;;;;;;;2.10;1.52;;;12.00;99.90;;;;;;5132469;27;20058;-61
2023/08/29 03:36:58;;;;;;;1.70;1.60;;;12.00;99.90;;;;;;5126952;27;20104;-61
2023/08/29 03:39:24;;;;;;;8.13;2.25;;;12.00;99.90;;;;;;5109094;28;20051;-61
2023/08/29 03:41:50;;;;;;;4.95;1.25;;;11.90;99.90;;;;;;5127631;27;20164;-61
2023/08/29 03:44:16;;;;;;;1.67;1.42;;;11.90;99.90;;;;;;5129907;27;20151;-62
2023/08/29 03:46:41;;;;;;;5.43;1.40;;;11.90;99.90;;;;;;5130253;27;20385;-61
2023/08/29 03:49:07;;;;;;;2.97;1.70;;;11.90;99.90;;;;;;5126478;27;20051;-61
2023/08/29 03:51:33;;;;;;;4.20;1.60;;;11.90;99.90;;;;;;5130298;27;20070;-61
2023/08/29 03:53:59;;;;;;;4.43;1.60;;;11.90;99.90;;;;;;5110641;28;20491;-61
2023/08/29 03:56:25;;;;;;;4.32;1.60;;;11.90;99.90;;;;;;5113809;27;20091;-61
2023/08/29 03:58:51;;;;;;;1.30;1.20;;;11.80;99.90;;;;;;5141100;27;20043;-61
2023/08/29 04:01:19;;;;;;;1.65;1.55;;;11.90;99.90;;;;;;5130403;27;20078;-61
2023/08/29 04:03:46;;;;;;;1.58;1.50;;;11.80;99.90;;;;;;5138749;27;20062;-62
2023/08/29 04:06:11;;;;;;;1.77;1.38;;;11.80;99.90;;;;;;5129156;27;20079;-62
2023/08/29 04:08:37;;;;;;;4.05;1.60;;;11.80;99.90;;;;;;5132469;27;20074;-61
2023/08/29 04:11:04;;;;;;;4.78;1.83;;;11.80;99.90;;;;;;5145105;27;20039;-61
2023/08/29 04:13:30;;;;;;;2.90;1.50;;;11.80;99.90;;;;;;5114263;28;20055;-61
2023/08/29 04:16:00;;;;;;;2.20;1.92;;;11.80;99.90;;;;;;5125974;27;20049;-61
2023/08/29 04:18:26;;;;;;;1.73;1.63;;;11.80;99.90;;;;;;5127202;27;20421;-61
2023/08/29 04:20:52;;;;;;;7.30;1.75;;;11.80;99.90;;;;;;5142284;27;20051;-61
2023/08/29 04:23:17;;;;;;;1.70;1.60;;;11.70;99.90;;;;;;5137654;27;20121;-61
2023/08/29 04:25:43;;;;;;;1.90;1.80;;;11.60;99.90;;;;;;5138304;27;20039;-61
2023/08/29 04:28:09;;;;;;;3.30;1.90;;;11.60;99.90;;;;;;5130111;27;20485;-61
2023/08/29 04:30:35;;;;;;;3.22;1.80;;;11.60;99.90;;;;;;5131207;27;20577;-61
2023/08/29 04:33:01;;;;;;;2.38;2.00;;;11.50;99.90;;;;;;5145221;27;20167;-62
2023/08/29 04:35:27;;;;;;;2.65;2.25;;;11.60;99.90;;;;;;5131027;27;20103;-61
2023/08/29 04:37:54;;;;;;;2.17;1.92;;;11.50;99.90;;;;;;5129819;27;20062;-61
2023/08/29 04:40:21;;;;;;;3.95;1.90;;;11.60;99.90;;;;;;5142286;27;20620;-61
2023/08/29 04:42:47;;;;;;;3.53;2.08;;;11.60;99.90;;;;;;5130860;27;20039;-61
2023/08/29 04:45:13;;;;;;;4.13;1.60;;;11.60;99.90;;;;;;5129383;27;20055;-61
2023/08/29 04:47:39;;;;;;;2.03;1.90;;;11.60;99.90;;;;;;5130927;27;20144;-61
2023/08/29 04:50:06;;;;;;;3.22;2.00;;;11.60;99.90;;;;;;5111051;27;20051;-61
2023/08/29 04:52:32;;;;;;;5.82;1.98;;;11.60;99.90;;;;;;5134357;27;20095;-61
2023/08/29 04:54:58;;;;;;;2.20;2.00;;;11.60;99.90;;;;;;5148423;27;20053;-61
2023/08/29 04:57:24;;;;;;;2.35;2.08;;;11.70;99.90;;;;;;5130314;27;20043;-61
2023/08/29 04:59:50;;;;;;;2.17;1.98;;;11.60;99.90;;;;;;5111941;27;20039;-62
2023/08/29 05:02:16;;;;;;;3.60;2.25;;;11.70;99.90;;;;;;5142550;27;20477;-61
2023/08/29 05:04:42;;;;;;;4.93;2.72;;;11.70;99.90;;;;;;5132032;27;20039;-61
2023/08/29 05:07:09;;;;;;;2.67;2.28;;;11.70;99.90;;;;;;5110580;27;20039;-61
2023/08/29 05:09:35;;;;;;;5.05;2.40;;;11.70;99.90;;;;;;5136878;27;20131;-61
2023/08/29 05:12:01;;;;;;;6.53;2.78;;;11.70;99.90;;;;;;5136963;27;20031;-61
2023/08/29 05:14:27;;;;;;;7.90;2.95;;;11.70;99.90;;;;;;5141972;27;20034;-61
2023/08/29 05:16:53;;;;;;;6.57;2.60;;;11.80;99.90;;;;;;5120617;27;20065;-61
2023/08/29 05:19:19;;;;;;;5.32;2.90;;;11.80;99.90;;;;;;5111772;27;20051;-61
2023/08/29 05:21:44;;;;;;;8.45;2.65;;;11.80;99.90;;;;;;5111300;27;20373;-61
2023/08/29 05:24:10;;;;;;;4.63;2.63;;;11.80;99.90;;;;;;5143726;27;20042;-61
2023/08/29 05:26:36;;;;;;;5.10;2.53;;;11.90;99.90;;;;;;5129873;27;20043;-61
2023/08/29 05:29:01;;;;;;;3.90;2.22;;;11.90;99.90;;;;;;5129382;27;20146;-61
2023/08/29 05:31:27;;;;;;;4.85;2.20;;;11.90;99.90;;;;;;5134726;27;20065;-61
2023/08/29 05:33:53;;;;;;;2.13;1.83;;;11.90;99.90;;;;;;5138904;27;20062;-61
2023/08/29 05:36:19;;;;;;;3.05;2.30;;;11.90;99.90;;;;;;5145268;27;20123;-61
2023/08/29 05:38:44;;;;;;;2.45;2.25;;;11.90;99.90;;;;;;5110486;27;20039;-61
2023/08/29 05:41:10;;;;;;;2.65;2.45;;;12.00;99.90;;;;;;5093497;27;20047;-61
2023/08/29 05:43:36;;;;;;;11.00;2.28;;;12.00;99.90;;;;;;5129496;27;20027;-61
2023/08/29 05:46:02;;;;;;;2.60;1.90;;;12.00;99.90;;;;;;5119630;27;20054;-61
2023/08/29 05:48:28;;;;;;;3.17;2.22;;;12.00;99.90;;;;;;5115739;27;20479;-61
2023/08/29 05:50:54;;;;;;;6.07;2.28;;;12.10;99.90;;;;;;5138190;27;20045;-60
2023/08/29 05:53:20;;;;;;;10.27;2.10;;;12.10;99.90;;;;;;5129823;27;20047;-61
2023/08/29 05:55:47;;;;;;;2.50;2.08;;;12.20;99.90;;;;;;5128172;27;20071;-61
2023/08/29 05:58:12;;;;;;;2.58;2.22;;;12.20;99.90;;;;;;5111037;27;20059;-61
2023/08/29 06:00:38;;;;;;;2.40;2.20;;;12.20;99.90;;;;;;5128919;27;20049;-61
2023/08/29 06:03:06;;;;;;;7.70;3.22;;;12.30;99.90;;;;;;5140885;27;20046;-61
2023/08/29 06:05:33;;;;;;;4.20;2.42;;;12.30;99.90;;;;;;5129213;27;20035;-61
2023/08/29 06:08:02;;;;;;;6.85;2.22;;;12.40;99.90;;;;;;5128314;27;20047;-61
2023/08/29 06:10:29;;;;;;;4.55;1.80;;;12.50;99.90;;;;;;5125449;27;20066;-61
2023/08/29 06:12:55;;;;;;;4.50;1.95;;;12.50;99.90;;;;;;5127771;27;20035;-63
2023/08/29 06:15:24;;;;;;;2.20;2.00;;;12.60;99.90;;;;;;5129127;27;20043;-61
2023/08/29 06:17:50;;;;;;;2.25;1.92;;;12.70;99.90;;;;;;5128544;27;20062;-61
2023/08/29 06:20:16;;;;;;;10.18;2.25;;;12.80;99.90;;;;;;5129781;27;20536;-61
2023/08/29 06:22:42;;;;;;;7.13;2.10;;;12.90;99.90;;;;;;5132386;27;20039;-61
2023/08/29 06:25:09;;;;;;;3.67;1.95;;;12.90;99.90;;;;;;5092589;27;20544;-61
2023/08/29 06:27:36;;;;;;;2.10;1.95;;;13.10;99.90;;;;;;5110144;27;20038;-61
2023/08/29 06:30:02;;;;;;;7.45;2.00;;;13.10;99.90;;;;;;5140577;27;20516;-61
2023/08/29 06:32:29;;;;;;;2.53;2.33;;;13.10;99.90;;;;;;5149435;27;20050;-61
2023/08/29 06:34:55;;;;;;;5.65;2.50;;;13.10;99.90;;;;;;5128831;27;20567;-61
2023/08/29 06:37:21;;;;;;;3.40;2.00;;;13.20;99.90;;;;;;5128111;27;20039;-61
2023/08/29 06:39:47;;;;;;;4.85;2.47;;;13.30;99.90;;;;;;5135674;27;20034;-61
2023/08/29 06:42:13;;;;;;;2.40;2.20;;;13.30;99.90;;;;;;5147571;27;20047;-61
2023/08/29 06:44:39;;;;;;;8.10;2.28;;;13.50;99.90;;;;;;5144659;27;20449;-61
2023/08/29 06:47:05;;;;;;;4.55;2.63;;;13.50;99.90;;;;;;5143358;27;20045;-78
2023/08/29 06:49:31;;;;;;;2.28;2.17;;;13.70;99.90;;;;;;5136097;27;20089;-61
2023/08/29 06:51:57;;;;;;;6.13;2.17;;;13.70;99.90;;;;;;5142125;27;20511;-61
2023/08/29 06:54:22;;;;;;;11.90;2.70;;;13.90;99.90;;;;;;5128565;27;20401;-61
2023/08/29 06:56:49;;;;;;;3.05;2.55;;;14.00;99.90;;;;;;5128000;27;20401;-61
2023/08/29 06:59:15;;;;;;;4.90;2.42;;;14.10;99.90;;;;;;5127243;27;20079;-61
2023/08/29 07:01:41;;;;;;;2.70;2.13;;;14.30;99.90;;;;;;5134004;27;20038;-61
2023/08/29 07:04:10;;;;;;;6.93;2.30;;;14.50;99.90;;;;;;5130729;27;20159;-61
2023/08/29 07:06:36;;;;;;;6.68;2.30;;;14.80;99.90;;;;;;5118424;27;20199;-61
2023/08/29 07:09:02;;;;;;;8.80;2.58;;;15.00;99.90;;;;;;5129467;27;20595;-61
2023/08/29 07:11:27;;;;;;;8.55;2.17;;;15.30;99.90;;;;;;5122724;27;20039;-61
2023/08/29 07:13:53;;;;;;;3.33;2.05;;;15.50;99.90;;;;;;5118439;27;20038;-61
2023/08/29 07:16:19;;;;;;;6.47;1.83;;;15.80;99.90;;;;;;5137102;27;20154;-61
2023/08/29 07:18:45;;;;;;;6.85;1.80;;;16.10;99.90;;;;;;5129528;27;20050;-61
2023/08/29 07:21:10;;;;;;;2.35;1.40;;;16.30;99.90;;;;;;5129203;27;20046;-61
2023/08/29 07:23:36;;;;;;;1.70;1.60;;;16.50;99.90;;;;;;5132572;27;20539;-61
2023/08/29 07:26:02;;;;;;;2.00;1.30;;;16.70;99.90;;;;;;5126572;27;20058;-61
2023/08/29 07:28:28;;;;;;;1.20;1.10;;;16.80;99.90;;;;;;5137453;27;20042;-61
2023/08/29 07:30:54;;;;;;;3.63;1.10;;;16.90;99.90;;;;;;5110299;27;20039;-62
2023/08/29 07:33:20;;;;;;;2.90;1.00;;;17.10;99.90;;;;;;5139242;27;20039;-61
2023/08/29 07:35:47;;;;;;;2.28;1.05;;;17.20;99.90;;;;;;5139300;27;20041;-61
2023/08/29 07:38:13;;;;;;;1.45;0.80;;;17.40;99.90;;;;;;5127511;27;20575;-61
2023/08/29 07:40:39;;;;;;;0.63;0.60;;;17.60;99.90;;;;;;5138180;27;20035;-61
2023/08/29 07:43:07;;;;;;;3.38;1.13;;;17.80;99.90;;;;;;5122702;27;20057;-61
2023/08/29 07:45:33;;;;;;;2.42;0.90;;;18.10;99.90;;;;;;5148002;27;20042;-61
2023/08/29 07:48:00;;;;;;;0.40;0.40;;;18.20;99.90;;;;;;5144616;27;20551;-61
2023/08/29 07:50:26;;;;;;;0.70;0.50;;;18.40;99.90;;;;;;5128111;27;20043;-61
2023/08/29 07:52:52;;;;;;;1.02;0.77;;;18.40;99.90;;;;;;5127415;27;20059;-61
2023/08/29 07:55:18;;;;;;;4.43;0.73;;;18.50;99.90;;;;;;5112568;27;20035;-62
2023/08/29 07:57:44;;;;;;;0.63;0.57;;;18.50;99.90;;;;;;5131591;27;20043;-61
2023/08/29 08:00:11;;;;;;;0.68;0.50;;;18.50;99.90;;;;;;5130520;27;20047;-62
2023/08/29 08:02:40;;;;;;;3.42;0.47;;;18.60;99.90;;;;;;5129672;27;20499;-61
2023/08/29 08:05:11;;;;;;;0.43;0.43;;;18.70;99.90;;;;;;5118715;27;20118;-61
2023/08/29 08:07:38;;;;;;;0.40;0.38;;;18.80;99.90;;;;;;5144564;27;20027;-61
2023/08/29 08:10:05;;;;;;;1.33;0.50;;;18.80;99.90;;;;;;5147583;27;20050;-61
2023/08/29 08:12:32;;;;;;;0.77;0.57;;;18.70;97.60;;;;;;5107295;27;20043;-61
2023/08/29 08:14:57;;;;;;;0.30;0.30;;;18.70;99.90;;;;;;5131616;27;20035;-61
2023/08/29 08:17:23;;;;;;;1.85;0.60;;;18.70;99.20;;;;;;5129220;27;20104;-61
2023/08/29 08:19:49;;;;;;;0.80;0.60;;;18.70;99.80;;;;;;5095669;27;20305;-61
2023/08/29 08:22:14;;;;;;;4.40;0.50;;;18.80;99.90;;;;;;5130227;27;20122;-62
2023/08/29 08:24:40;;;;;;;1.13;0.73;;;18.90;98.80;;;;;;5135025;27;20442;-61
2023/08/29 08:27:07;;;;;;;0.90;0.60;;;19.00;95.80;;;;;;5129689;27;20689;-62
2023/08/29 08:29:33;;;;;;;0.40;0.30;;;19.20;93.80;;;;;;5133795;27;20146;-62
2023/08/29 08:31:59;;;;;;;1.00;0.50;;;19.30;94.90;;;;;;5132841;27;20039;-62
2023/08/29 08:34:25;;;;;;;2.50;0.70;;;19.40;95.00;;;;;;5130047;27;20549;-63
2023/08/29 08:36:51;;;;;;;4.75;0.50;;;19.50;92.60;;;;;;5130275;27;20043;-62
2023/08/29 08:39:17;;;;;;;0.93;0.52;;;19.50;92.10;;;;;;5129589;27;20050;-62
2023/08/29 08:41:43;;;;;;;0.50;0.40;;;19.60;94.90;;;;;;5130868;27;20088;-62
2023/08/29 08:44:11;;;;;;;2.15;0.57;;;19.70;90.30;;;;;;5129022;27;20389;-62
2023/08/29 08:46:38;;;;;;;1.00;0.60;;;19.70;83.30;;;;;;5114880;27;20053;-64
2023/08/29 08:49:06;;;;;;;1.63;0.47;;;19.50;75.40;;;;;;5131527;27;20043;-62
2023/08/29 08:51:33;;;;;;;0.25;0.25;;;19.30;76.40;;;;;;5132908;27;20058;-63
2023/08/29 08:53:59;;;;;;;0.20;0.20;;;19.30;74.20;;;;;;5130259;27;20130;-62
2023/08/29 08:56:28;;;;;;;0.30;0.30;;;19.20;67.90;;;;;;5128819;27;20497;-62
2023/08/29 08:58:54;;;;;;;1.25;0.57;;;19.20;79.00;;;;;;5130486;27;20344;-61
2023/08/29 09:01:20;;;;;;;1.17;0.55;;;19.30;82.60;;;;;;5133338;27;20050;-60
2023/08/29 09:03:46;;;;;;;2.35;0.73;;;19.20;73.20;;;;;;5096151;27;20046;-60
2023/08/29 09:06:14;;;;;;;1.02;0.40;;;19.00;68.70;;;;;;5117487;27;20415;-60
2023/08/29 09:08:41;;;;;;;0.30;0.20;;;18.80;72.10;;;;;;5132341;27;20047;-60
2023/08/29 09:11:06;;;;;;;2.28;0.60;;;18.70;78.50;;;;;;5140005;27;20114;-60
2023/08/29 09:13:32;;;;;;;1.23;0.40;;;18.90;84.40;;;;;;5121567;27;20598;-60
2023/08/29 09:16:00;;;;;;;3.35;0.82;;;19.10;83.80;;;;;;5133631;27;20107;-60
2023/08/29 09:18:31;;;;;;;1.85;0.47;;;19.30;73.20;;;;;;5128187;27;20107;-60
2023/08/29 09:21:00;;;;;;;1.20;0.43;;;19.60;54.70;;;;;;5131502;27;20035;-60
2023/08/29 09:23:28;;;;;;;1.10;0.40;;;19.80;53.30;;;;;;5129296;27;20062;-63
2023/08/29 09:25:58;;;;;;;2.40;0.60;;;20.10;52.80;;;;;;5129009;27;20421;-61
2023/08/29 09:28:29;;;;;;;1.45;0.60;;;20.40;44.60;;;;;;5137481;27;20396;-61
2023/08/29 09:31:15;;;;;;;1.52;0.52;;;20.40;33.50;;;;;;5110532;27;20042;-61
2023/08/29 09:33:41;;;;;;;0.50;0.45;;;20.60;26.00;;;;;;5145447;27;20081;-61
2023/08/29 09:36:07;;;;;;;0.28;0.22;;;20.70;32.60;;;;;;5132659;27;20071;-61
2023/08/29 09:38:36;;;;;;;1.33;0.50;;;20.80;31.70;;;;;;5129863;27;20046;-61
2023/08/29 09:41:02;;;;;;;1.90;0.60;;;21.00;30.70;;;;;;5128408;27;20074;-61
2023/08/29 09:43:28;;;;;;;0.55;0.30;;;21.10;26.90;;;;;;5110278;27;20509;-61
2023/08/29 09:45:56;;;;;;;2.00;0.63;;;21.20;22.60;;;;;;5110440;27;20489;-61
2023/08/29 09:48:23;;;;;;;4.00;0.60;;;21.20;13.00;;;;;;5142205;27;20100;-61
2023/08/29 09:50:50;;;;;;;1.92;0.68;;;21.30;19.90;;;;;;5136564;27;20039;-62
2023/08/29 09:53:18;;;;;;;3.15;0.85;;;21.30;3.70;;;;;;5111168;27;20036;-62
2023/08/29 09:55:48;;;;;;;1.00;0.70;;;21.10;9.30;;;;;;5140805;27;20114;-61
2023/08/29 09:58:15;;;;;;;0.90;0.60;;;21.00;1.00;;;;;;5128356;27;20461;-61
2023/08/29 10:00:43;;;;;;;1.45;0.90;;;20.80;7.10;;;;;;5110435;27;20339;-61
2023/08/29 10:03:10;;;;;;;1.30;0.55;;;20.60;17.70;;;;;;5129438;27;20047;-61
2023/08/29 10:05:41;;;;;;;0.88;0.50;;;20.70;24.50;;;;;;5127433;27;20459;-62
2023/08/29 10:08:32;;;;;;;2.10;0.63;;;20.80;18.00;;;;;;5110725;27;20058;-61
2023/08/29 10:10:59;;;;;;;1.13;0.50;;;20.80;12.30;;;;;;5110139;27;20047;-62
2023/08/29 10:13:27;;;;;;;0.43;0.40;;;20.90;16.60;;;;;;5111246;27;20043;-61
2023/08/29 10:15:54;;;;;;;1.02;0.32;;;20.90;16.20;;;;;;5128378;27;20051;-61
2023/08/29 10:18:22;;;;;;;3.85;0.90;;;20.90;10.40;;;;;;5133674;27;20428;-61
2023/08/29 10:20:49;;;;;;;1.40;0.43;;;21.00;1.00;;;;;;5127401;27;20054;-61
2023/08/29 10:23:17;;;;;;;1.05;0.80;;;20.90;1.00;;;;;;5132116;27;20098;-62
2023/08/29 10:25:45;;;;;;;0.63;0.63;;;21.00;1.00;;;;;;5112423;27;20031;-61
2023/08/29 10:28:12;;;;;;;1.38;0.77;;;21.10;1.00;;;;;;5131398;27;20167;-61
2023/08/29 10:30:45;;;;;;;1.42;0.60;;;21.10;1.00;;;;;;5137326;27;20034;-61
2023/08/29 10:33:12;;;;;;;0.70;0.68;;;21.20;1.00;;;;;;5138439;27;20050;-61
2023/08/29 10:35:37;;;;;;;0.85;0.65;;;21.30;1.00;;;;;;5134236;27;20039;-61
2023/08/29 10:38:10;;;;;;;1.00;0.70;;;21.50;1.00;;;;;;5120874;27;20050;-61
2023/08/29 10:40:36;;;;;;;1.30;0.77;;;21.60;1.00;;;;;;5116138;27;20054;-61
2023/08/29 10:43:03;;;;;;;0.85;0.85;;;21.70;1.00;;;;;;5101452;27;20416;-61
2023/08/29 10:45:54;;;;;;;0.90;0.60;;;21.70;1.00;;;;;;5131476;27;20039;-62
2023/08/29 10:48:39;;;;;;;0.80;0.70;;;21.60;1.00;;;;;;5136382;27;20046;-61
2023/08/29 10:51:09;;;;;;;1.10;0.60;;;21.40;1.00;;;;;;5136183;27;20096;-61
2023/08/29 10:53:39;;;;;;;2.08;0.90;;;21.10;1.00;;;;;;5141314;27;20046;-61
2023/08/29 10:56:08;;;;;;;1.25;0.70;;;21.00;1.00;;;;;;5134549;27;20043;-61
2023/08/29 10:58:41;;;;;;;3.00;0.77;;;20.80;1.00;;;;;;5138656;27;20046;-61
2023/08/29 11:01:30;;;;;;;1.17;0.70;;;20.80;1.00;;;;;;5102438;27;20070;-61
2023/08/29 11:04:03;;;;;;;0.85;0.70;;;20.90;14.30;;;;;;5118113;27;20092;-61
2023/08/29 11:06:55;;;;;;;1.13;0.70;;;21.00;1.00;;;;;;5132523;27;20074;-61
2023/08/29 11:09:25;;;;;;;1.55;0.55;;;20.70;1.00;;;;;;5114914;27;20074;-61
2023/08/29 11:12:15;;;;;;;2.08;0.65;;;20.60;2.00;;;;;;5118887;27;20404;-61
2023/08/29 11:14:55;;;;;;;1.08;0.63;;;20.50;1.00;;;;;;5129268;27;20043;-62
2023/08/29 11:17:23;;;;;;;1.25;0.60;;;20.50;1.00;;;;;;5132769;27;20077;-61
2023/08/29 11:19:56;;;;;;;2.85;0.88;;;20.50;1.00;;;;;;5131288;27;20116;-61
2023/08/29 11:22:25;;;;;;;3.25;0.68;;;20.40;1.00;;;;;;5110620;27;20122;-61
2023/08/29 11:24:55;;;;;;;0.70;0.60;;;20.30;1.00;;;;;;5138502;27;20047;-61
2023/08/29 11:27:31;;;;;;;1.35;0.55;;;20.30;1.80;;;;;;5096249;27;20127;-61
2023/08/29 11:30:00;;;;;;;2.15;0.60;;;20.20;1.00;;;;;;5138958;27;20111;-61
2023/08/29 11:32:28;;;;;;;1.13;0.70;;;20.10;9.10;;;;;;5130393;27;20042;-62
2023/08/29 11:34:54;;;;;;;0.95;0.50;;;20.10;11.00;;;;;;5127969;27;20039;-62
2023/08/29 11:37:23;;;;;;;2.03;0.70;;;20.00;14.60;;;;;;5126697;27;20134;-61
2023/08/29 11:39:53;;;;;;;0.57;0.57;;;19.90;6.80;;;;;;5128636;27;20042;-61
2023/08/29 11:42:20;;;;;;;1.00;0.70;;;19.80;10.40;;;;;;5128503;27;20121;-61
2023/08/29 11:44:47;;;;;;;1.50;0.60;;;19.70;18.60;;;;;;5128871;27;20477;-62
2023/08/29 11:47:16;;;;;;;4.28;0.38;;;19.60;14.00;;;;;;5129345;27;20051;-61
2023/08/29 11:49:42;;;;;;;0.65;0.60;;;19.50;13.20;;;;;;5111893;27;20053;-62
2023/08/29 11:52:09;;;;;;;0.95;0.40;;;19.40;12.30;;;;;;5131363;27;20522;-61
2023/08/29 11:54:41;;;;;;;0.57;0.57;;;19.30;15.60;;;;;;5124550;27;20128;-62
2023/08/29 11:57:08;;;;;;;1.17;0.70;;;19.30;20.20;;;;;;5121564;27;20403;-61
2023/08/29 11:59:35;;;;;;;0.57;0.43;;;19.20;16.40;;;;;;5143261;27;20259;-61
2023/08/29 12:02:00;;;;;;;1.95;0.70;;;19.10;18.00;;;;;;5116638;27;20047;-61
2023/08/29 12:04:27;;;;;;;1.17;0.50;;;19.00;14.40;;;;;;5144339;27;20070;-61
2023/08/29 12:07:06;;;;;;;0.50;0.47;;;19.00;22.90;;;;;;5140753;27;20051;-61
2023/08/29 12:09:32;;;;;;;1.10;0.60;;;18.90;26.80;;;;;;5133098;27;20039;-62
2023/08/29 12:11:58;;;;;;;0.40;0.40;;;18.80;20.60;;;;;;5128864;27;20046;-78
2023/08/29 12:14:24;;;;;;;0.47;0.47;;;18.70;20.40;;;;;;5129259;27;20151;-61
2023/08/29 12:16:53;;;;;;;2.08;0.65;;;18.70;15.10;;;;;;5127668;27;20086;-61
2023/08/29 12:19:19;;;;;;;0.77;0.50;;;18.60;18.50;;;;;;5125872;27;20051;-65
2023/08/29 12:21:54;;;;;;;1.38;0.40;;;18.60;25.80;;;;;;5122421;27;20398;-61
2023/08/29 12:24:21;;;;;;;1.58;0.40;;;18.60;41.80;;;;;;5130752;27;20039;-61
2023/08/29 12:26:47;;;;;;;0.98;0.50;;;18.70;45.20;;;;;;5146005;27;20110;-62
2023/08/29 12:29:13;;;;;;;0.60;0.52;;;18.70;46.20;;;;;;5132613;27;20050;-62
2023/08/29 12:31:38;;;;;;;2.42;0.57;;;18.70;56.60;;;;;;5131542;27;20043;-61
2023/08/29 12:34:04;;;;;;;0.47;0.43;;;18.60;38.30;;;;;;5126617;27;20134;-61
2023/08/29 12:36:30;;;;;;;1.35;0.50;;;18.60;47.00;;;;;;5126237;27;20049;-61
2023/08/29 12:38:56;;;;;;;1.13;0.50;;;18.60;48.60;;;;;;5127990;27;20037;-61
2023/08/29 12:41:22;;;;;;;0.75;0.40;;;18.60;46.70;;;;;;5136008;27;20117;-61
2023/08/29 12:43:49;;;;;;;1.10;0.40;;;18.70;45.30;;;;;;5121046;27;20141;-61
2023/08/29 12:46:14;;;;;;;2.47;0.70;;;18.70;45.30;;;;;;5141894;27;20043;-61
2023/08/29 12:48:40;;;;;;;0.45;0.40;;;18.70;48.30;;;;;;5143891;27;20035;-61